Time;durP1;ratioP1;P1;durP2;ratioP2;P2;SDS_P1;SDS_P2;PMS_P1;PMS_P2;Temp;Humidity;BMP_temperature;BMP_pressure;BME280_temperature;BME280_humidity;BME280_pressure;Samples;Min_cycle;Max_cycle;Signal;HPM_P1;HPM_P2
2023/04/16 00:01:44;;;;;;;14.00;7.97;;;;;9.00;95963.00;;;;8447425;28;20222;-72
2023/04/16 00:05:47;;;;;;;13.80;7.82;;;;;8.90;95965.00;;;;8448429;28;20256;-72
2023/04/16 00:09:56;;;;;;;13.27;8.15;;;;;8.90;95962.00;;;;8445851;28;20179;-73
2023/04/16 00:14:07;;;;;;;13.80;7.60;;;;;8.90;95961.00;;;;8443792;28;20556;-73
2023/04/16 00:18:10;;;;;;;13.57;7.67;;;;;8.90;95967.00;;;;8442836;28;20199;-75
2023/04/16 00:22:17;;;;;;;19.20;7.70;;;;;8.90;95970.00;;;;8446079;28;20198;-74
2023/04/16 00:26:22;;;;;;;15.80;7.55;;;;;8.90;95963.00;;;;8446912;28;20665;-72
2023/04/16 00:30:34;;;;;;;12.90;7.43;;;;;8.90;95960.00;;;;8418496;28;20640;-71
2023/04/16 00:34:37;;;;;;;15.73;8.52;;;;;8.90;95966.00;;;;8448043;28;20203;-73
2023/04/16 00:38:40;;;;;;;16.30;8.27;;;;;8.90;95966.00;;;;8447143;28;20195;-73
2023/04/16 00:42:45;;;;;;;16.83;7.60;;;;;8.80;95972.00;;;;8444403;28;20640;-73
2023/04/16 00:46:51;;;;;;;12.50;7.23;;;;;8.80;95972.00;;;;8446802;28;20227;-73
2023/04/16 00:50:55;;;;;;;14.83;7.30;;;;;8.70;95966.00;;;;8443255;28;20195;-72
2023/04/16 00:55:00;;;;;;;15.35;7.70;;;;;8.70;95976.00;;;;8449419;28;20719;-74
2023/04/16 00:59:05;;;;;;;15.57;7.50;;;;;8.70;95970.00;;;;8447804;28;20905;-74
2023/04/16 01:03:09;;;;;;;14.60;7.30;;;;;8.60;95970.00;;;;8446546;28;20231;-74
2023/04/16 01:07:12;;;;;;;12.73;6.95;;;;;8.60;95963.00;;;;8443235;28;20223;-74
2023/04/16 01:11:15;;;;;;;14.18;6.68;;;;;8.60;95972.00;;;;8446782;28;20210;-73
2023/04/16 01:15:20;;;;;;;11.23;5.97;;;;;8.50;95970.00;;;;8447897;28;20206;-75
2023/04/16 01:19:23;;;;;;;14.23;6.10;;;;;8.50;95965.00;;;;8452901;28;20198;-72
2023/04/16 01:23:27;;;;;;;10.20;6.17;;;;;8.50;95966.00;;;;8452109;28;20194;-75
2023/04/16 01:27:31;;;;;;;10.67;5.70;;;;;8.40;95970.00;;;;8452089;28;20230;-74
2023/04/16 01:31:45;;;;;;;10.52;5.78;;;;;8.40;95966.00;;;;8453466;28;20208;-74
2023/04/16 01:35:48;;;;;;;10.93;5.83;;;;;8.40;95978.00;;;;8453878;28;20199;-75
2023/04/16 01:39:53;;;;;;;9.57;5.60;;;;;8.40;95980.00;;;;8453495;28;20199;-72
2023/04/16 01:43:56;;;;;;;7.70;4.93;;;;;8.40;95986.00;;;;8451594;28;20199;-72
2023/04/16 01:48:04;;;;;;;10.83;5.27;;;;;8.40;95986.00;;;;8451380;28;20267;-71
2023/04/16 01:52:07;;;;;;;8.57;5.07;;;;;8.40;95986.00;;;;8452734;28;20195;-71
2023/04/16 01:56:12;;;;;;;9.00;4.70;;;;;8.40;95986.00;;;;8450921;28;20198;-71
2023/04/16 02:00:15;;;;;;;10.23;5.63;;;;;8.40;96000.00;;;;8451079;28;20199;-73
2023/04/16 02:04:22;;;;;;;9.80;5.87;;;;;8.40;95992.00;;;;8428140;28;20237;-70
2023/04/16 02:08:27;;;;;;;8.80;5.07;;;;;8.40;95995.00;;;;8448757;28;20239;-71
2023/04/16 02:12:32;;;;;;;9.60;4.93;;;;;8.40;95992.00;;;;8450478;28;20232;-71
2023/04/16 02:16:36;;;;;;;10.93;5.43;;;;;8.40;95999.00;;;;8451233;28;20214;-70
2023/04/16 02:20:41;;;;;;;9.73;5.27;;;;;8.40;95999.00;;;;8450932;28;20202;-70
2023/04/16 02:24:44;;;;;;;9.73;5.47;;;;;8.40;95998.00;;;;8450796;28;20203;-70
2023/04/16 02:28:53;;;;;;;8.93;4.85;;;;;8.40;95998.00;;;;8430467;28;20226;-70
2023/04/16 02:32:56;;;;;;;10.67;5.33;;;;;8.40;95995.00;;;;8450869;28;20191;-72
2023/04/16 02:36:59;;;;;;;10.13;5.28;;;;;8.40;96000.00;;;;8448859;28;20187;-71
2023/04/16 02:41:02;;;;;;;11.00;5.37;;;;;8.40;96001.00;;;;8451731;28;20210;-72
2023/04/16 02:45:12;;;;;;;8.50;4.57;;;;;8.40;96002.00;;;;8443674;28;20232;-72
2023/04/16 02:49:17;;;;;;;12.00;5.10;;;;;8.40;96010.00;;;;8448766;28;20191;-72
2023/04/16 02:53:20;;;;;;;7.63;4.53;;;;;8.40;96019.00;;;;8451415;28;20222;-71
2023/04/16 02:57:28;;;;;;;9.63;4.80;;;;;8.40;96016.00;;;;8442853;28;20191;-72
2023/04/16 03:01:32;;;;;;;9.83;4.80;;;;;8.50;96024.00;;;;8463115;22;20237;-73
2023/04/16 03:05:38;;;;;;;8.10;4.53;;;;;8.40;96020.00;;;;8314219;28;20312;-73
2023/04/16 03:09:42;;;;;;;8.90;4.40;;;;;8.50;96019.00;;;;8325183;28;20192;-72
2023/04/16 03:13:48;;;;;;;9.57;4.70;;;;;8.50;96025.00;;;;8320813;28;20198;-73
2023/04/16 03:17:58;;;;;;;9.73;4.60;;;;;8.50;96022.00;;;;8324600;28;20643;-71
2023/04/16 03:22:02;;;;;;;7.00;4.20;;;;;8.60;96037.00;;;;8319806;28;20226;-71
2023/04/16 03:26:05;;;;;;;10.70;4.27;;;;;8.60;96032.00;;;;8319399;28;20213;-72
2023/04/16 03:30:10;;;;;;;9.80;4.83;;;;;8.60;96034.00;;;;8299801;28;20201;-73
2023/04/16 03:34:15;;;;;;;7.57;4.20;;;;;8.60;96038.00;;;;8315992;28;20197;-71
2023/04/16 03:38:18;;;;;;;8.37;4.40;;;;;8.60;96039.00;;;;8317845;28;20228;-70
2023/04/16 03:42:22;;;;;;;8.90;4.45;;;;;8.60;96038.00;;;;8318455;28;20190;-72
2023/04/16 03:46:27;;;;;;;7.00;4.13;;;;;8.70;96045.00;;;;8297778;28;20244;-73
2023/04/16 03:50:32;;;;;;;9.48;4.32;;;;;8.70;96044.00;;;;8316999;28;20726;-71
2023/04/16 03:54:35;;;;;;;8.15;4.07;;;;;8.70;96046.00;;;;8314398;28;20210;-71
2023/04/16 03:58:40;;;;;;;9.23;4.53;;;;;8.60;96050.00;;;;8318082;28;20255;-71
2023/04/16 04:02:43;;;;;;;9.97;4.30;;;;;8.60;96052.00;;;;8304486;28;20234;-69
2023/04/16 04:06:48;;;;;;;10.10;4.33;;;;;8.70;96059.00;;;;8282550;28;20692;-71
2023/04/16 04:10:51;;;;;;;10.57;4.40;;;;;8.80;96060.00;;;;8281635;28;20197;-70
2023/04/16 04:14:56;;;;;;;9.93;4.27;;;;;8.70;96062.00;;;;8266726;28;20831;-71
2023/04/16 04:19:01;;;;;;;7.53;3.95;;;;;8.70;96064.00;;;;8281617;28;20594;-70
2023/04/16 04:23:10;;;;;;;7.07;4.17;;;;;8.80;96067.00;;;;8283579;28;20201;-71
2023/04/16 04:27:20;;;;;;;8.85;4.38;;;;;8.80;96062.00;;;;8276603;28;20229;-70
2023/04/16 04:31:23;;;;;;;13.35;4.60;;;;;8.90;96063.00;;;;8274249;28;20205;-69
2023/04/16 04:35:27;;;;;;;9.27;4.47;;;;;9.00;96071.00;;;;8270270;28;20281;-71
2023/04/16 04:39:39;;;;;;;9.60;4.60;;;;;9.10;96080.00;;;;8281516;28;20205;-71
2023/04/16 04:43:42;;;;;;;8.32;4.28;;;;;9.10;96082.00;;;;8278309;28;20198;-72
2023/04/16 04:47:47;;;;;;;6.27;4.00;;;;;9.20;96086.00;;;;8278830;28;20230;-72
2023/04/16 04:51:50;;;;;;;8.53;4.30;;;;;9.20;96090.00;;;;8275165;28;20277;-70
2023/04/16 04:55:54;;;;;;;8.50;4.30;;;;;9.30;96097.00;;;;8286056;28;20202;-71
2023/04/16 05:00:13;;;;;;;11.57;5.97;;;;;9.30;96095.00;;;;8287171;28;20198;-70
2023/04/16 05:04:26;;;;;;;8.53;4.50;;;;;9.30;96099.00;;;;8312459;28;20304;-73
2023/04/16 05:08:31;;;;;;;10.40;4.82;;;;;9.30;96102.00;;;;8313341;28;20226;-71
2023/04/16 05:12:35;;;;;;;9.57;4.47;;;;;9.30;96106.00;;;;8314955;28;20209;-71
2023/04/16 05:16:39;;;;;;;10.23;4.50;;;;;9.40;96106.00;;;;8309665;28;20201;-72
2023/04/16 05:20:47;;;;;;;9.53;4.50;;;;;9.60;96121.00;;;;8312745;28;20255;-72
2023/04/16 05:24:53;;;;;;;10.68;5.88;;;;;9.70;96121.00;;;;8319562;28;20202;-72
2023/04/16 05:28:57;;;;;;;7.20;4.80;;;;;9.90;96121.00;;;;8320783;28;20240;-72
2023/04/16 05:33:02;;;;;;;8.23;4.73;;;;;10.10;96125.00;;;;8317197;28;20189;-73
2023/04/16 05:37:05;;;;;;;8.82;4.75;;;;;10.30;96126.00;;;;8319470;28;20714;-73
2023/04/16 05:41:09;;;;;;;5.93;4.43;;;;;10.60;96135.00;;;;8319860;28;20216;-74
2023/04/16 05:45:15;;;;;;;9.35;4.45;;;;;10.60;96135.00;;;;8316605;28;20247;-72
2023/04/16 05:49:19;;;;;;;5.35;3.83;;;;;10.80;96146.00;;;;8321881;28;20221;-72
2023/04/16 05:53:22;;;;;;;5.93;4.03;;;;;11.10;96148.00;;;;8317468;28;20201;-73
2023/04/16 05:57:31;;;;;;;6.53;4.50;;;;;11.30;96142.00;;;;8311738;28;20211;-70
2023/04/16 06:01:36;;;;;;;5.30;3.72;;;;;11.60;96147.00;;;;8308126;28;20239;-72
2023/04/16 06:05:39;;;;;;;4.03;3.47;;;;;11.80;96158.00;;;;8288757;28;20198;-74
2023/04/16 06:09:45;;;;;;;3.60;3.15;;;;;11.90;96164.00;;;;8286914;28;20226;-74
2023/04/16 06:13:52;;;;;;;3.90;2.38;;;;;11.90;96164.00;;;;8286522;28;20712;-75
2023/04/16 06:18:06;;;;;;;2.60;2.40;;;;;12.00;96164.00;;;;8286854;28;20201;-74
2023/04/16 06:22:11;;;;;;;2.38;2.25;;;;;12.20;96161.00;;;;8285121;28;20217;-74
2023/04/16 06:26:18;;;;;;;2.80;2.60;;;;;12.30;96165.00;;;;8278956;28;20201;-74
2023/04/16 06:30:26;;;;;;;3.05;2.80;;;;;12.30;96173.00;;;;8282625;28;20210;-74
2023/04/16 06:34:31;;;;;;;3.05;2.78;;;;;12.40;96172.00;;;;8282976;28;20705;-75
2023/04/16 06:38:36;;;;;;;2.90;2.70;;;;;12.30;96168.00;;;;8287891;28;20201;-75
2023/04/16 06:42:42;;;;;;;3.03;2.78;;;;;12.30;96165.00;;;;8281144;28;20203;-74
2023/04/16 06:46:47;;;;;;;2.60;2.40;;;;;12.30;96182.00;;;;8279549;28;20259;-73
2023/04/16 06:50:52;;;;;;;2.28;2.17;;;;;12.30;96183.00;;;;8285477;28;20215;-74
2023/04/16 06:54:56;;;;;;;1.98;1.88;;;;;12.20;96178.00;;;;8285048;28;20209;-74
2023/04/16 06:59:02;;;;;;;2.15;2.05;;;;;12.10;96183.00;;;;8285541;28;20197;-74
2023/04/16 07:03:05;;;;;;;2.10;2.00;;;;;12.00;96192.00;;;;8297027;28;20590;-71
2023/04/16 07:07:10;;;;;;;2.20;2.10;;;;;12.00;96179.00;;;;8313771;28;20308;-74
2023/04/16 07:11:13;;;;;;;1.98;1.88;;;;;12.10;96182.00;;;;8314273;28;20204;-75
2023/04/16 07:15:18;;;;;;;1.90;1.80;;;;;12.20;96178.00;;;;8308178;28;20193;-74
2023/04/16 07:19:22;;;;;;;1.80;1.75;;;;;12.40;96191.00;;;;8312560;28;20211;-74
2023/04/16 07:23:27;;;;;;;2.03;1.92;;;;;12.50;96191.00;;;;8315510;28;20211;-70
2023/04/16 07:27:30;;;;;;;2.20;2.10;;;;;12.50;96192.00;;;;8316769;28;20225;-75
2023/04/16 07:31:35;;;;;;;2.08;1.90;;;;;12.60;96209.00;;;;8317514;28;20296;-77
2023/04/16 07:35:40;;;;;;;1.70;1.60;;;;;12.70;96204.00;;;;8315114;28;20201;-73
2023/04/16 07:39:48;;;;;;;1.70;1.60;;;;;12.80;96202.00;;;;8317012;28;20204;-74
2023/04/16 07:43:51;;;;;;;1.70;1.60;;;;;12.80;96203.00;;;;8311825;28;20211;-76
2023/04/16 07:47:54;;;;;;;1.70;1.60;;;;;12.50;96211.00;;;;8315477;28;20216;-74
2023/04/16 07:51:57;;;;;;;1.85;1.75;;;;;12.20;96215.00;;;;8312585;28;20197;-75
2023/04/16 07:56:03;;;;;;;2.10;1.88;;;;;12.10;96217.00;;;;8317934;28;20799;-75
2023/04/16 08:00:23;;;;;;;1.88;1.77;;;;;11.90;96221.00;;;;8296324;28;20198;-74
2023/04/16 08:04:27;;;;;;;3.25;2.00;;;;;11.90;96213.00;;;;8282481;28;20287;-72
2023/04/16 08:08:45;;;;;;;3.60;2.20;;;;;11.80;96227.00;;;;8280513;28;20328;-73
2023/04/16 08:12:52;;;;;;;2.92;2.40;;;;;11.70;96233.00;;;;8281005;28;20525;-73
2023/04/16 08:16:57;;;;;;;2.65;2.45;;;;;11.70;96223.00;;;;8273362;28;20208;-74
2023/04/16 08:21:00;;;;;;;2.58;2.38;;;;;11.70;96237.00;;;;8262118;28;20294;-73
2023/04/16 08:25:11;;;;;;;2.00;1.90;;;;;11.70;96236.00;;;;8281321;28;20654;-74
2023/04/16 08:29:17;;;;;;;2.35;2.15;;;;;11.80;96247.00;;;;8280529;28;20972;-77
2023/04/16 08:33:21;;;;;;;2.20;2.10;;;;;12.00;96248.00;;;;8281195;28;20205;-72
2023/04/16 08:37:25;;;;;;;6.72;3.70;;;;;12.00;96256.00;;;;8276069;28;20233;-68
2023/04/16 08:41:33;;;;;;;2.75;2.38;;;;;12.20;96259.00;;;;8281510;28;20198;-71
2023/04/16 08:45:38;;;;;;;2.90;2.15;;;;;12.20;96269.00;;;;8272935;28;20210;-72
2023/04/16 08:49:44;;;;;;;7.97;2.08;;;;;12.30;96269.00;;;;8284567;28;20233;-71
2023/04/16 08:53:53;;;;;;;20.48;13.15;;;;;12.30;96269.00;;;;8280880;28;20212;-72
2023/04/16 08:57:59;;;;;;;2.42;2.30;;;;;12.40;96273.00;;;;8280918;28;20272;-71
2023/04/16 09:02:05;;;;;;;1.90;1.80;;;;;12.40;96274.00;;;;8288004;28;20241;-72
2023/04/16 09:06:10;;;;;;;1.60;1.60;;;;;12.40;96279.00;;;;8314471;28;20207;-71
2023/04/16 09:10:14;;;;;;;1.90;1.80;;;;;12.40;96276.00;;;;8313095;28;20283;-73
2023/04/16 09:14:18;;;;;;;1.70;1.60;;;;;12.50;96287.00;;;;8309691;28;20448;-71
2023/04/16 09:18:23;;;;;;;1.80;1.70;;;;;12.60;96290.00;;;;8314268;28;20197;-76
2023/04/16 09:22:26;;;;;;;1.83;1.70;;;;;12.80;96291.00;;;;8319354;28;20228;-74
2023/04/16 09:26:33;;;;;;;1.35;1.35;;;;;13.00;96304.00;;;;8316054;28;20687;-75
2023/04/16 09:30:37;;;;;;;1.30;1.30;;;;;13.20;96305.00;;;;8317896;28;20239;-74
2023/04/16 09:35:01;;;;;;;1.77;1.20;;;;;13.30;96312.00;;;;8313098;28;20204;-76
2023/04/16 09:39:04;;;;;;;1.20;1.20;;;;;13.40;96308.00;;;;8319809;28;20259;-74
2023/04/16 09:43:13;;;;;;;5.85;5.45;;;;;13.60;96310.00;;;;8317258;28;20193;-75
2023/04/16 09:47:17;;;;;;;2.08;1.98;;;;;13.80;96312.00;;;;8320206;28;20194;-75
2023/04/16 09:51:23;;;;;;;4.22;3.28;;;;;13.90;96316.00;;;;8322928;28;20252;-75
2023/04/16 09:55:31;;;;;;;4.80;2.50;;;;;14.30;96317.00;;;;8325350;28;20260;-74
2023/04/16 09:59:36;;;;;;;2.47;2.33;;;;;14.70;96321.00;;;;8319911;28;20205;-76
2023/04/16 10:03:40;;;;;;;2.50;2.40;;;;;15.10;96320.00;;;;8290274;28;20234;-77
2023/04/16 10:07:48;;;;;;;4.00;3.78;;;;;15.30;96319.00;;;;8283943;28;20234;-82
2023/04/16 10:11:53;;;;;;;2.10;2.00;;;;;15.70;96330.00;;;;8277217;28;20191;-78
2023/04/16 10:16:00;;;;;;;1.73;1.63;;;;;16.20;96334.00;;;;8260019;28;20277;-81
2023/04/16 10:20:04;;;;;;;1.80;1.70;;;;;16.30;96333.00;;;;8280666;28;20206;-76
2023/04/16 10:24:09;;;;;;;4.15;3.85;;;;;16.20;96337.00;;;;8284291;28;20210;-76
2023/04/16 10:28:15;;;;;;;3.00;2.08;;;;;16.50;96333.00;;;;8282036;28;20288;-73
2023/04/16 10:32:20;;;;;;;2.00;1.90;;;;;16.90;96330.00;;;;8283784;28;20198;-75
2023/04/16 10:36:25;;;;;;;1.90;1.80;;;;;17.10;96330.00;;;;8285455;28;20190;-72
2023/04/16 10:40:30;;;;;;;1.90;1.80;;;;;17.20;96334.00;;;;8278661;28;20202;-75
2023/04/16 10:44:33;;;;;;;2.38;1.70;;;;;17.00;96332.00;;;;8264976;28;20241;-72
2023/04/16 10:48:41;;;;;;;2.55;1.77;;;;;16.90;96333.00;;;;8283023;28;20586;-73
2023/04/16 10:53:30;;;;;;;1.80;1.70;;;;;16.70;96338.00;;;;8278937;28;20246;-70
2023/04/16 10:57:34;;;;;;;1.80;1.80;;;;;16.70;96338.00;;;;8276992;28;20244;-74
2023/04/16 11:01:45;;;;;;;1.65;1.65;;;;;16.70;96341.00;;;;8284459;28;20258;-73
2023/04/16 11:05:49;;;;;;;1.90;1.80;;;;;17.00;96344.00;;;;8256257;28;20221;-72
2023/04/16 11:09:58;;;;;;;2.47;1.65;;;;;16.90;96346.00;;;;8277771;28;20229;-74
2023/04/16 11:14:09;;;;;;;2.97;1.60;;;;;16.80;96345.00;;;;8278567;28;20285;-74
2023/04/16 11:18:12;;;;;;;1.70;1.60;;;;;16.60;96347.00;;;;8281414;28;20273;-75
2023/04/16 11:22:18;;;;;;;1.77;1.67;;;;;16.60;96347.00;;;;8278912;28;20194;-74
2023/04/16 11:26:25;;;;;;;1.25;1.25;;;;;16.70;96351.00;;;;8275971;28;20198;-75
2023/04/16 11:30:32;;;;;;;1.77;1.67;;;;;16.60;96352.00;;;;8261662;28;20224;-74
2023/04/16 11:34:44;;;;;;;1.63;1.58;;;;;16.70;96353.00;;;;8283759;28;20289;-74
2023/04/16 11:38:49;;;;;;;1.80;1.70;;;;;16.90;96357.00;;;;8284508;28;20195;-78
2023/04/16 11:42:54;;;;;;;1.60;1.60;;;;;17.10;96350.00;;;;8274704;28;20198;-76
2023/04/16 11:47:05;;;;;;;1.40;1.40;;;;;17.50;96354.00;;;;8277838;28;20202;-75
2023/04/16 11:51:12;;;;;;;1.65;1.55;;;;;17.80;96363.00;;;;8277729;28;20269;-77
2023/04/16 11:55:17;;;;;;;1.30;1.30;;;;;18.10;96367.00;;;;8278744;28;20248;-78
2023/04/16 11:59:24;;;;;;;1.58;1.50;;;;;18.10;96365.00;;;;8280765;28;20253;-75
2023/04/16 12:03:42;;;;;;;1.67;1.58;;;;;18.30;96362.00;;;;8296816;28;20282;-72
2023/04/16 12:07:48;;;;;;;1.60;1.58;;;;;18.70;96368.00;;;;8309096;28;20656;-75
2023/04/16 12:11:54;;;;;;;1.60;1.50;;;;;19.00;96365.00;;;;8308759;28;20275;-75
2023/04/16 12:16:00;;;;;;;1.63;1.63;;;;;19.30;96360.00;;;;8315467;28;20584;-75
2023/04/16 12:20:09;;;;;;;1.40;1.40;;;;;19.60;96357.00;;;;8301533;28;20193;-75
2023/04/16 12:24:19;;;;;;;1.35;1.35;;;;;20.10;96364.00;;;;8305227;28;20209;-73
2023/04/16 12:28:30;;;;;;;1.15;1.15;;;;;20.40;96363.00;;;;8312521;28;20201;-74
2023/04/16 12:32:40;;;;;;;1.50;1.50;;;;;20.20;96356.00;;;;8302082;28;20237;-75
2023/04/16 12:36:46;;;;;;;1.50;1.40;;;;;20.50;96364.00;;;;8297189;28;20803;-74
2023/04/16 12:40:55;;;;;;;1.30;1.30;;;;;20.60;96362.00;;;;8308502;28;20198;-74
2023/04/16 12:44:58;;;;;;;1.33;1.33;;;;;20.60;96362.00;;;;8304185;28;20194;-76
2023/04/16 12:49:01;;;;;;;2.13;1.65;;;;;20.70;96367.00;;;;8310090;28;20224;-75
2023/04/16 12:53:08;;;;;;;1.30;1.30;;;;;20.60;96359.00;;;;8307777;28;20212;-74
2023/04/16 12:57:15;;;;;;;1.27;1.27;;;;;20.20;96369.00;;;;8308398;28;20285;-75
2023/04/16 13:01:22;;;;;;;1.30;1.30;;;;;20.00;96367.00;;;;8300020;28;20278;-72
2023/04/16 13:05:26;;;;;;;1.67;1.60;;;;;19.70;96366.00;;;;8277060;28;20614;-78
2023/04/16 13:09:30;;;;;;;1.52;1.42;;;;;19.30;96362.00;;;;8282403;28;20573;-78
2023/04/16 13:13:36;;;;;;;1.40;1.40;;;;;18.80;96366.00;;;;8286789;28;20190;-79
2023/04/16 13:17:42;;;;;;;2.00;1.50;;;;;18.60;96371.00;;;;8282558;28;20244;-78
2023/04/16 13:21:45;;;;;;;1.80;1.70;;;;;18.10;96374.00;;;;8262870;28;20309;-74
2023/04/16 13:25:51;;;;;;;2.22;2.00;;;;;17.10;96368.00;;;;8283911;28;20202;-76
2023/04/16 13:29:57;;;;;;;2.13;2.03;;;;;16.10;96369.00;;;;8282607;28;20268;-75
2023/04/16 13:34:03;;;;;;;1.80;1.70;;;;;15.30;96373.00;;;;8281060;28;20228;-74
2023/04/16 13:38:09;;;;;;;2.10;1.90;;;;;14.60;96364.00;;;;8283643;28;20233;-76
2023/04/16 13:42:16;;;;;;;3.60;1.63;;;;;14.10;96369.00;;;;8280924;28;20926;-83
2023/04/16 13:46:26;;;;;;;1.80;1.70;;;;;13.10;96370.00;;;;8285966;28;20198;-74
2023/04/16 13:50:33;;;;;;;2.85;1.80;;;;;12.50;96382.00;;;;8283374;28;20225;-77
2023/04/16 13:54:37;;;;;;;2.95;2.72;;;;;12.10;96375.00;;;;8281038;28;20206;-80
2023/04/16 13:58:41;;;;;;;1.98;1.88;;;;;11.80;96381.00;;;;8285011;28;20256;-77
2023/04/16 14:02:47;;;;;;;2.13;2.03;;;;;11.50;96381.00;;;;8281846;28;20237;-76
2023/04/16 14:06:57;;;;;;;1.92;1.83;;;;;11.50;96381.00;;;;8280552;28;20232;-75
2023/04/16 14:11:07;;;;;;;2.00;1.90;;;;;11.80;96383.00;;;;8279791;28;20221;-77
2023/04/16 14:15:17;;;;;;;1.90;1.80;;;;;12.30;96391.00;;;;8278168;28;20234;-77
2023/04/16 14:19:20;;;;;;;1.80;1.70;;;;;12.60;96386.00;;;;8275151;28;20664;-77
2023/04/16 14:23:23;;;;;;;1.60;1.50;;;;;12.70;96389.00;;;;8277308;28;20265;-76
2023/04/16 14:27:27;;;;;;;1.30;1.30;;;;;12.90;96387.00;;;;8279954;28;20202;-76
2023/04/16 14:31:32;;;;;;;1.60;1.58;;;;;13.20;96378.00;;;;8279910;28;20287;-76
2023/04/16 14:35:36;;;;;;;1.77;1.67;;;;;13.40;96390.00;;;;8260824;28;20210;-79
2023/04/16 14:39:41;;;;;;;3.80;1.90;;;;;13.50;96393.00;;;;8279705;28;20206;-76
2023/04/16 14:43:44;;;;;;;2.05;1.40;;;;;13.80;96402.00;;;;8279058;28;20224;-76
2023/04/16 14:47:53;;;;;;;1.35;1.35;;;;;13.90;96392.00;;;;8274405;28;20206;-77
2023/04/16 14:51:57;;;;;;;1.40;1.40;;;;;14.00;96400.00;;;;8268977;28;20234;-75
2023/04/16 14:56:08;;;;;;;1.50;1.50;;;;;13.90;96404.00;;;;8271147;28;20199;-74
2023/04/16 15:00:17;;;;;;;1.80;1.70;;;;;13.60;96405.00;;;;8272459;28;20790;-76
2023/04/16 15:04:24;;;;;;;4.43;1.63;;;;;13.50;96405.00;;;;8278033;28;20225;-74
2023/04/16 15:08:27;;;;;;;1.80;1.70;;;;;13.50;96412.00;;;;8272507;28;20299;-77
2023/04/16 15:12:33;;;;;;;2.20;2.10;;;;;13.40;96412.00;;;;8281326;28;20225;-77
2023/04/16 15:16:36;;;;;;;3.13;2.10;;;;;13.50;96400.00;;;;8274402;28;20240;-76
2023/04/16 15:20:45;;;;;;;2.40;2.22;;;;;13.40;96402.00;;;;8273009;28;20813;-79
2023/04/16 15:24:49;;;;;;;2.42;2.22;;;;;13.30;96403.00;;;;8276836;28;20252;-75
2023/04/16 15:28:58;;;;;;;2.25;2.05;;;;;13.30;96408.00;;;;8260220;28;20289;-77
2023/04/16 15:33:04;;;;;;;2.00;1.90;;;;;13.30;96409.00;;;;8276640;28;20303;-75
2023/04/16 15:37:09;;;;;;;2.38;2.17;;;;;13.50;96411.00;;;;8277883;28;20946;-77
2023/04/16 15:41:18;;;;;;;1.88;1.73;;;;;13.60;96408.00;;;;8278696;28;20202;-80
2023/04/16 15:45:21;;;;;;;1.73;1.73;;;;;13.70;96409.00;;;;8273220;28;20505;-80
2023/04/16 15:49:25;;;;;;;1.90;1.80;;;;;13.80;96409.00;;;;8283307;28;20257;-80
2023/04/16 15:53:29;;;;;;;1.98;1.85;;;;;14.00;96410.00;;;;8272029;28;20289;-78
2023/04/16 15:57:33;;;;;;;2.17;2.08;;;;;14.20;96416.00;;;;8275434;28;20195;-77
2023/04/16 16:01:37;;;;;;;2.83;2.10;;;;;14.40;96414.00;;;;8283946;28;20229;-75
2023/04/16 16:05:43;;;;;;;1.75;1.65;;;;;14.60;96420.00;;;;8286926;28;20224;-75
2023/04/16 16:09:47;;;;;;;1.50;1.40;;;;;14.80;96414.00;;;;8289322;28;20256;-75
2023/04/16 16:13:51;;;;;;;1.77;1.67;;;;;15.10;96412.00;;;;8306743;28;20229;-75
2023/04/16 16:17:56;;;;;;;1.60;1.50;;;;;15.50;96416.00;;;;8310502;28;20209;-74
2023/04/16 16:22:09;;;;;;;1.70;1.60;;;;;15.70;96424.00;;;;8297518;28;20290;-74
2023/04/16 16:26:19;;;;;;;1.80;1.55;;;;;15.80;96417.00;;;;8307257;28;20643;-75
2023/04/16 16:30:24;;;;;;;1.60;1.50;;;;;16.20;96426.00;;;;8311969;28;20258;-75
2023/04/16 16:34:28;;;;;;;2.00;1.77;;;;;16.90;96419.00;;;;8308474;28;20198;-74
2023/04/16 16:38:34;;;;;;;1.67;1.65;;;;;17.00;96419.00;;;;8313280;28;20299;-74
2023/04/16 16:42:39;;;;;;;1.85;1.75;;;;;17.10;96426.00;;;;8293726;28;20205;-74
2023/04/16 16:46:42;;;;;;;1.50;1.50;;;;;17.30;96423.00;;;;8314192;28;20571;-74
2023/04/16 16:50:45;;;;;;;1.70;1.60;;;;;17.60;96418.00;;;;8301397;28;20233;-74
2023/04/16 16:54:48;;;;;;;1.58;1.50;;;;;17.60;96428.00;;;;8316132;28;20209;-73
2023/04/16 16:58:57;;;;;;;2.05;1.45;;;;;17.30;96428.00;;;;8315336;28;20267;-71
2023/04/16 17:03:00;;;;;;;2.28;1.80;;;;;16.60;96424.00;;;;8301480;28;20241;-71
2023/04/16 17:07:05;;;;;;;1.73;1.35;;;;;16.00;96426.00;;;;8279761;28;20237;-71
2023/04/16 17:11:08;;;;;;;1.50;1.40;;;;;15.40;96433.00;;;;8287630;28;20225;-71
2023/04/16 17:15:16;;;;;;;1.48;1.48;;;;;14.90;96431.00;;;;8281903;28;20368;-71
2023/04/16 17:19:26;;;;;;;1.45;1.45;;;;;14.60;96439.00;;;;8282943;28;20289;-71
2023/04/16 17:23:29;;;;;;;1.70;1.60;;;;;14.40;96440.00;;;;8277985;28;20206;-71
2023/04/16 17:27:33;;;;;;;1.67;1.60;;;;;14.20;96439.00;;;;8270144;28;20205;-70
2023/04/16 17:31:38;;;;;;;1.50;1.50;;;;;14.00;96451.00;;;;8278838;28;20261;-70
2023/04/16 17:35:45;;;;;;;3.63;1.88;;;;;13.80;96451.00;;;;8282042;28;20322;-69
2023/04/16 17:39:54;;;;;;;1.80;1.70;;;;;13.60;96455.00;;;;8275338;28;20194;-71
2023/04/16 17:43:58;;;;;;;3.30;1.83;;;;;13.40;96462.00;;;;8286318;28;20329;-70
2023/04/16 17:48:03;;;;;;;1.90;1.80;;;;;13.20;96460.00;;;;8281271;28;20197;-70
2023/04/16 17:52:11;;;;;;;2.13;2.03;;;;;13.00;96460.00;;;;8284672;28;20305;-71
2023/04/16 17:56:14;;;;;;;1.60;1.50;;;;;12.80;96464.00;;;;8282068;28;20716;-70
2023/04/16 18:00:20;;;;;;;3.15;2.10;;;;;12.70;96461.00;;;;8280669;28;20252;-71
2023/04/16 18:04:27;;;;;;;2.28;1.80;;;;;12.50;96469.00;;;;8303700;28;20236;-70
2023/04/16 18:08:30;;;;;;;1.80;1.70;;;;;12.20;96478.00;;;;8304917;28;20197;-70
2023/04/16 18:12:34;;;;;;;2.03;1.83;;;;;11.90;96489.00;;;;8313540;28;20279;-70
2023/04/16 18:16:37;;;;;;;1.63;1.60;;;;;11.60;96485.00;;;;8303792;28;20200;-71
2023/04/16 18:20:41;;;;;;;1.88;1.77;;;;;11.50;96485.00;;;;8314846;28;20219;-70
2023/04/16 18:24:45;;;;;;;2.95;2.00;;;;;11.50;96491.00;;;;8311115;28;20197;-70
2023/04/16 18:28:52;;;;;;;2.03;1.92;;;;;11.40;96494.00;;;;8306336;28;20244;-70
2023/04/16 18:32:56;;;;;;;1.88;1.77;;;;;11.30;96500.00;;;;8306200;28;20232;-71
2023/04/16 18:37:21;;;;;;;2.90;2.10;;;;;11.40;96505.00;;;;8302055;28;20233;-70
2023/04/16 18:41:24;;;;;;;2.10;2.00;;;;;11.30;96507.00;;;;8298353;28;20205;-71
2023/04/16 18:45:28;;;;;;;2.10;2.00;;;;;11.20;96508.00;;;;8306356;28;20333;-69
2023/04/16 18:49:32;;;;;;;3.05;2.30;;;;;11.20;96510.00;;;;8303984;28;20274;-69
2023/04/16 18:53:41;;;;;;;3.47;2.05;;;;;11.20;96514.00;;;;8311577;28;20232;-69
2023/04/16 18:57:44;;;;;;;5.47;4.47;;;;;11.20;96514.00;;;;8313972;28;20252;-69
2023/04/16 19:01:51;;;;;;;3.35;3.10;;;;;11.20;96520.00;;;;8310772;28;20236;-69
2023/04/16 19:05:56;;;;;;;3.40;2.72;;;;;11.20;96519.00;;;;8312097;28;20197;-69
2023/04/16 19:10:02;;;;;;;2.90;2.70;;;;;11.20;96521.00;;;;8313851;28;20227;-69
2023/04/16 19:14:06;;;;;;;2.40;2.20;;;;;11.20;96534.00;;;;8307233;28;20229;-70
2023/04/16 19:18:10;;;;;;;2.53;2.33;;;;;11.20;96535.00;;;;8303882;28;20252;-69
2023/04/16 19:22:13;;;;;;;2.80;2.60;;;;;11.20;96535.00;;;;8318169;28;20837;-69
2023/04/16 19:26:21;;;;;;;2.42;2.33;;;;;11.20;96540.00;;;;8308094;28;20265;-69
2023/04/16 19:30:25;;;;;;;3.17;2.40;;;;;11.10;96542.00;;;;8302352;28;20979;-69
2023/04/16 19:34:31;;;;;;;2.65;2.42;;;;;11.10;96539.00;;;;8308095;28;20709;-69
2023/04/16 19:38:35;;;;;;;2.80;2.60;;;;;11.00;96542.00;;;;8295350;28;20213;-68
2023/04/16 19:42:44;;;;;;;2.17;2.08;;;;;10.90;96553.00;;;;8313715;28;20211;-69
2023/04/16 19:46:47;;;;;;;2.85;2.55;;;;;10.80;96546.00;;;;8293468;28;20202;-69
2023/04/16 19:50:54;;;;;;;2.60;2.08;;;;;10.70;96549.00;;;;8306493;28;20204;-69
2023/04/16 19:54:57;;;;;;;1.92;1.83;;;;;10.60;96553.00;;;;8313063;28;20238;-70
2023/04/16 19:59:02;;;;;;;3.95;2.50;;;;;10.60;96557.00;;;;8313221;28;20682;-69
2023/04/16 20:03:05;;;;;;;3.20;2.88;;;;;10.50;96559.00;;;;8277423;28;20359;-68
2023/04/16 20:07:10;;;;;;;2.50;2.30;;;;;10.40;96556.00;;;;8292288;28;20212;-70
2023/04/16 20:11:14;;;;;;;2.60;2.40;;;;;10.30;96565.00;;;;8289467;28;20196;-70
2023/04/16 20:15:20;;;;;;;3.13;2.60;;;;;10.20;96564.00;;;;8281889;28;20248;-70
2023/04/16 20:19:30;;;;;;;3.38;2.88;;;;;10.10;96563.00;;;;8284169;28;20210;-69
2023/04/16 20:23:33;;;;;;;6.75;4.13;;;;;10.00;96566.00;;;;8276094;28;20199;-69
2023/04/16 20:27:39;;;;;;;5.68;3.83;;;;;10.00;96564.00;;;;8285617;28;20205;-70
2023/04/16 20:31:44;;;;;;;3.20;2.90;;;;;9.90;96562.00;;;;8281591;28;20519;-71